createdAt,value
2023-05-10T00:00:42.380Z,97851.50
2023-05-10T00:03:08.935Z,97854.72
2023-05-10T00:05:35.589Z,97851.94
2023-05-10T00:08:02.125Z,97855.75
2023-05-10T00:10:28.609Z,97859.81
2023-05-10T00:12:55.179Z,97852.38
2023-05-10T00:15:21.828Z,97847.53
2023-05-10T00:17:48.322Z,97848.34
2023-05-10T00:20:15.050Z,97852.72
2023-05-10T00:22:41.702Z,97853.13
2023-05-10T00:25:09.128Z,97860.84
2023-05-10T00:27:35.636Z,97851.84
2023-05-10T00:30:02.132Z,97848.78
2023-05-10T00:32:29.333Z,97842.06
2023-05-10T00:34:56.112Z,97844.16
2023-05-10T00:37:22.595Z,97854.06
2023-05-10T00:39:49.273Z,97849.81
2023-05-10T00:42:15.925Z,97846.50
2023-05-10T00:44:42.951Z,97846.28
2023-05-10T00:47:09.832Z,97847.25
2023-05-10T00:49:37.348Z,97845.69
2023-05-10T00:52:04.293Z,97842.06
2023-05-10T00:54:31.190Z,97849.53
2023-05-10T00:56:58.268Z,97847.25
2023-05-10T00:59:25.098Z,97849.94
2023-05-10T01:01:52.572Z,97852.03
2023-05-10T01:04:21.013Z,97847.53
2023-05-10T01:06:47.523Z,97855.97
2023-05-10T01:09:14.134Z,97863.19
2023-05-10T01:11:41.008Z,97852.38
2023-05-10T01:14:07.924Z,97851.94
2023-05-10T01:16:38.476Z,97859.06
2023-05-10T01:19:17.571Z,97859.44
2023-05-10T01:21:53.955Z,97868.34
2023-05-10T01:24:33.301Z,97857.00
2023-05-10T01:27:04.724Z,97849.72
2023-05-10T01:29:43.527Z,97846.28
2023-05-10T01:32:15.360Z,97858.03
2023-05-10T01:34:57.383Z,97850.63
2023-05-10T01:37:34.374Z,97854.22
2023-05-10T01:40:16.533Z,97856.13
2023-05-10T01:42:50.965Z,97858.50
2023-05-10T01:45:28.348Z,97863.41
2023-05-10T01:48:03.185Z,97870.09
2023-05-10T01:50:31.450Z,97865.88
2023-05-10T01:53:01.177Z,97866.63
2023-05-10T01:55:31.801Z,97863.91
2023-05-10T01:58:07.101Z,97857.97
2023-05-10T02:00:35.529Z,97860.66
2023-05-10T02:03:06.148Z,97860.38
2023-05-10T02:05:34.276Z,97869.13
2023-05-10T02:08:02.636Z,97878.75
2023-05-10T02:10:31.299Z,97879.94
2023-05-10T02:13:01.036Z,97888.66
2023-05-10T02:15:28.552Z,97887.72
2023-05-10T02:18:00.865Z,97885.53
2023-05-10T02:20:27.904Z,97887.16
2023-05-10T02:22:56.851Z,97894.47
2023-05-10T02:25:24.555Z,97898.22
2023-05-10T02:27:54.796Z,97897.88
2023-05-10T02:30:22.523Z,97902.94
2023-05-10T02:32:52.545Z,97892.22
2023-05-10T02:35:20.200Z,97893.66
2023-05-10T02:37:48.243Z,97896.47
2023-05-10T02:40:17.255Z,97894.25
2023-05-10T02:42:45.682Z,97902.84
2023-05-10T02:45:16.249Z,97905.38
2023-05-10T02:47:42.873Z,97908.81
2023-05-10T02:50:09.754Z,97905.19
2023-05-10T02:52:50.689Z,97912.66
2023-05-10T02:55:20.231Z,97910.66
2023-05-10T02:57:59.338Z,97916.47
2023-05-10T03:00:26.627Z,97907.28
2023-05-10T03:02:53.573Z,97913.84
2023-05-10T03:05:20.813Z,97912.00
2023-05-10T03:07:48.377Z,97907.38
2023-05-10T03:10:15.263Z,97910.63
2023-05-10T03:13:05.325Z,97909.44
2023-05-10T03:15:58.760Z,97912.22
2023-05-10T03:18:50.961Z,97923.13
2023-05-10T03:21:19.582Z,97914.38
2023-05-10T03:23:57.908Z,97908.09
2023-05-10T03:26:27.011Z,97920.31
2023-05-10T03:29:01.860Z,97912.94
2023-05-10T03:31:28.656Z,97926.16
2023-05-10T03:33:55.462Z,97916.56
2023-05-10T03:36:26.004Z,97911.94
2023-05-10T03:38:52.515Z,97916.81
2023-05-10T03:41:19.004Z,97918.03
2023-05-10T03:43:45.438Z,97918.47
2023-05-10T03:46:11.998Z,97912.38
2023-05-10T03:48:38.651Z,97917.00
2023-05-10T03:51:05.682Z,97912.66
2023-05-10T03:53:32.128Z,97921.41
2023-05-10T03:55:58.618Z,97915.63
2023-05-10T03:58:25.341Z,97915.63
2023-05-10T04:00:52.779Z,97915.28
2023-05-10T04:03:19.419Z,97922.63
2023-05-10T04:05:46.067Z,97921.22
2023-05-10T04:08:12.567Z,97925.50
2023-05-10T04:10:39.125Z,97918.47
2023-05-10T04:13:05.720Z,97923.81
2023-05-10T04:15:32.224Z,97918.91
2023-05-10T04:17:58.749Z,97920.06
2023-05-10T04:20:25.509Z,97920.38
2023-05-10T04:22:51.990Z,97922.88
2023-05-10T04:25:18.470Z,97922.63
2023-05-10T04:27:44.985Z,97932.03
2023-05-10T04:30:12.014Z,97929.38
2023-05-10T04:32:38.550Z,97926.31
2023-05-10T04:35:05.691Z,97936.25
2023-05-10T04:37:32.241Z,97931.09
2023-05-10T04:40:00.797Z,97932.66
2023-05-10T04:42:27.333Z,97943.81
2023-05-10T04:44:53.905Z,97937.44
2023-05-10T04:47:20.417Z,97936.75
2023-05-10T04:49:47.194Z,97938.56
2023-05-10T04:52:13.765Z,97945.16
2023-05-10T04:54:40.223Z,97936.84
2023-05-10T04:57:06.692Z,97944.13
2023-05-10T04:59:33.195Z,97948.88
2023-05-10T05:01:59.681Z,97955.03
2023-05-10T05:04:26.180Z,97951.00
2023-05-10T05:06:53.968Z,97963.22
2023-05-10T05:09:20.890Z,97959.75
2023-05-10T05:11:47.479Z,97975.34
2023-05-10T05:14:13.915Z,97972.69
2023-05-10T05:16:40.631Z,97974.81
2023-05-10T05:19:07.197Z,97972.06
2023-05-10T05:21:33.886Z,97978.28
2023-05-10T05:24:00.848Z,97980.78
2023-05-10T05:26:27.534Z,97986.31
2023-05-10T05:28:55.518Z,97987.28
2023-05-10T05:31:22.377Z,97988.91
2023-05-10T05:33:48.974Z,97997.56
2023-05-10T05:36:15.496Z,97992.28
2023-05-10T05:38:42.007Z,97986.75
2023-05-10T05:41:08.427Z,97983.97
2023-05-10T05:43:36.795Z,97989.22
2023-05-10T05:46:04.856Z,97986.66
2023-05-10T05:48:31.995Z,97983.75
2023-05-10T05:50:58.668Z,97984.97
2023-05-10T05:53:25.505Z,97983.84
2023-05-10T05:55:54.022Z,97988.56
2023-05-10T05:58:20.907Z,97988.75
2023-05-10T06:00:47.386Z,97988.59
2023-05-10T06:03:13.947Z,97974.75
2023-05-10T06:05:40.511Z,97976.72
2023-05-10T06:08:06.992Z,97970.00
2023-05-10T06:10:33.440Z,97977.88
2023-05-10T06:12:59.913Z,97964.41
2023-05-10T06:15:27.024Z,97976.47
2023-05-10T06:17:53.595Z,97975.38
2023-05-10T06:20:20.112Z,97979.69
2023-05-10T06:22:46.718Z,97974.06
2023-05-10T06:25:13.368Z,97978.53
2023-05-10T06:27:39.818Z,97979.44
2023-05-10T06:30:13.071Z,97982.84
2023-05-10T06:32:40.241Z,97997.38
2023-05-10T06:35:07.382Z,98000.63
2023-05-10T06:37:34.147Z,97998.91
2023-05-10T06:40:01.512Z,98005.38
2023-05-10T06:42:28.301Z,98001.44
2023-05-10T06:44:54.820Z,98010.66
2023-05-10T06:47:21.257Z,98017.53
2023-05-10T06:49:47.743Z,98011.19
2023-05-10T06:52:14.165Z,98015.63
2023-05-10T06:54:40.723Z,98020.69
2023-05-10T06:57:16.111Z,98022.19
2023-05-10T06:59:50.156Z,98017.78
2023-05-10T07:02:16.871Z,98022.47
2023-05-10T07:04:43.429Z,98019.06
2023-05-10T07:07:09.906Z,98030.69
2023-05-10T07:09:36.370Z,98027.72
2023-05-10T07:12:03.090Z,98021.59
2023-05-10T07:14:29.623Z,98022.66
2023-05-10T07:16:56.610Z,98031.06
2023-05-10T07:19:23.422Z,98036.44
2023-05-10T07:21:50.041Z,98036.72
2023-05-10T07:24:16.512Z,98033.38
2023-05-10T07:26:43.059Z,98031.22
2023-05-10T07:29:09.598Z,98039.16
2023-05-10T07:31:36.652Z,98033.97
2023-05-10T07:34:03.156Z,98037.81
2023-05-10T07:36:29.839Z,98039.50
2023-05-10T07:38:57.461Z,98043.97
2023-05-10T07:41:24.065Z,98037.97
2023-05-10T07:43:50.502Z,98036.25
2023-05-10T07:46:17.352Z,98036.41
2023-05-10T07:48:43.793Z,98038.94
2023-05-10T07:51:10.656Z,98034.72
2023-05-10T07:53:37.212Z,98039.13
2023-05-10T07:56:21.335Z,98040.47
2023-05-10T07:58:47.769Z,98042.72
2023-05-10T08:01:14.215Z,98042.03
2023-05-10T08:03:40.767Z,98039.84
2023-05-10T08:06:07.448Z,98044.88
2023-05-10T08:08:33.886Z,98053.78
2023-05-10T08:11:00.350Z,98052.25
2023-05-10T08:13:26.869Z,98057.44
2023-05-10T08:15:54.138Z,98047.00
2023-05-10T08:18:22.067Z,98061.53
2023-05-10T08:20:49.302Z,98064.50
2023-05-10T08:23:16.432Z,98067.91
2023-05-10T08:25:42.909Z,98063.13
2023-05-10T08:28:10.704Z,98065.91
2023-05-10T08:30:38.394Z,98070.88
2023-05-10T08:33:04.875Z,98077.03
2023-05-10T08:35:31.846Z,98077.78
2023-05-10T08:37:58.302Z,98076.19
2023-05-10T08:40:25.266Z,98090.72
2023-05-10T08:42:59.431Z,98094.78
2023-05-10T08:45:32.616Z,98098.25
2023-05-10T08:48:03.219Z,98102.03
2023-05-10T08:50:31.059Z,98116.59
2023-05-10T08:53:01.118Z,98112.75
2023-05-10T08:55:28.611Z,98112.00
2023-05-10T08:57:55.702Z,98120.09
2023-05-10T09:00:23.979Z,98116.88
2023-05-10T09:02:51.306Z,98114.44
2023-05-10T09:05:18.798Z,98121.00
2023-05-10T09:07:45.596Z,98127.41
2023-05-10T09:10:12.739Z,98125.41
2023-05-10T09:12:39.712Z,98133.06
2023-05-10T09:15:08.349Z,98133.09
2023-05-10T09:17:35.373Z,98144.13
2023-05-10T09:20:05.076Z,98141.13
2023-05-10T09:22:32.074Z,98137.38
2023-05-10T09:25:12.157Z,98139.97
2023-05-10T09:27:40.448Z,98135.16
2023-05-10T09:30:08.172Z,98132.44
2023-05-10T09:32:37.763Z,98135.81
2023-05-10T09:35:12.086Z,98132.00
2023-05-10T09:37:43.748Z,98137.34
2023-05-10T09:40:16.225Z,98138.72
2023-05-10T09:42:55.992Z,98138.47
2023-05-10T09:45:24.502Z,98135.47
2023-05-10T09:47:51.250Z,98144.84
2023-05-10T09:50:17.929Z,98136.53
2023-05-10T09:52:52.164Z,98132.25
2023-05-10T09:55:20.897Z,98135.97
2023-05-10T09:57:49.121Z,98137.31
2023-05-10T10:00:20.160Z,98131.00
2023-05-10T10:02:48.864Z,98139.09
2023-05-10T10:05:16.380Z,98143.00
2023-05-10T10:10:36.951Z,98137.34
2023-05-10T10:13:03.849Z,98124.34
2023-05-10T10:15:30.507Z,98134.31
2023-05-10T10:17:57.050Z,98129.06
2023-05-10T10:20:23.858Z,98125.84
2023-05-10T10:22:50.787Z,98125.06
2023-05-10T10:25:19.682Z,98119.28
2023-05-10T10:27:52.741Z,98109.34
2023-05-10T10:30:25.083Z,98108.94
2023-05-10T10:33:02.677Z,98113.38
2023-05-10T10:35:33.800Z,98116.16
2023-05-10T10:38:01.327Z,98106.03
2023-05-10T10:40:28.892Z,98106.38
2023-05-10T10:42:56.066Z,98114.41
2023-05-10T10:45:23.747Z,98110.91
2023-05-10T10:47:54.358Z,98119.97
2023-05-10T10:50:20.810Z,98129.28
2023-05-10T10:52:49.022Z,98132.47
2023-05-10T10:55:19.126Z,98136.44
2023-05-10T10:57:55.932Z,98129.59
2023-05-10T11:00:32.172Z,98144.59
2023-05-10T11:03:07.351Z,98147.25
2023-05-10T11:05:36.660Z,98146.00
2023-05-10T11:08:15.817Z,98152.81
2023-05-10T11:10:52.952Z,98151.81
2023-05-10T11:13:32.567Z,98144.84
2023-05-10T11:16:00.294Z,98147.50
2023-05-10T11:18:29.460Z,98155.25
2023-05-10T11:21:01.041Z,98157.69
2023-05-10T11:23:33.193Z,98159.75
2023-05-10T11:26:02.512Z,98149.91
2023-05-10T11:28:29.320Z,98152.13
2023-05-10T11:30:56.889Z,98151.06
2023-05-10T11:33:23.490Z,98147.16
2023-05-10T11:35:50.075Z,98147.47
2023-05-10T11:38:16.599Z,98156.28
2023-05-10T11:40:43.569Z,98150.53
2023-05-10T11:43:11.740Z,98149.09
2023-05-10T11:45:38.320Z,98149.13
2023-05-10T11:48:05.257Z,98148.88
2023-05-10T11:50:31.832Z,98149.44
2023-05-10T11:52:59.629Z,98160.56
2023-05-10T11:55:26.170Z,98160.19
2023-05-10T11:57:53.951Z,98156.47
2023-05-10T12:00:20.976Z,98164.28
2023-05-10T12:02:48.429Z,98151.78
2023-05-10T12:05:15.532Z,98147.69
2023-05-10T12:07:42.194Z,98143.88
2023-05-10T12:10:18.545Z,98141.88
2023-05-10T12:12:49.041Z,98144.25
2023-05-10T12:15:23.356Z,98135.38
2023-05-10T12:17:50.813Z,98135.81
2023-05-10T12:20:19.644Z,98135.81
2023-05-10T12:23:00.326Z,98136.59
2023-05-10T12:25:31.841Z,98129.97
2023-05-10T12:28:01.957Z,98136.25
2023-05-10T12:30:30.390Z,98138.25
2023-05-10T12:33:15.699Z,98149.94
2023-05-10T12:35:47.676Z,98153.31
2023-05-10T12:38:31.463Z,98152.31
2023-05-10T12:41:02.594Z,98152.84
2023-05-10T12:43:29.672Z,98146.38
2023-05-10T12:45:56.279Z,98154.53
2023-05-10T12:48:23.820Z,98149.41
2023-05-10T12:50:50.283Z,98166.50
2023-05-10T12:53:17.557Z,98155.94
2023-05-10T12:55:44.841Z,98148.56
2023-05-10T12:58:13.891Z,98155.34
2023-05-10T13:00:44.806Z,98159.13
2023-05-10T13:03:11.485Z,98156.91
2023-05-10T13:05:38.772Z,98159.53
2023-05-10T13:08:05.711Z,98155.91
2023-05-10T13:10:32.647Z,98161.41
2023-05-10T13:12:59.682Z,98162.72
2023-05-10T13:15:26.942Z,98170.53
2023-05-10T13:17:54.938Z,98158.91
2023-05-10T13:20:21.838Z,98160.00
2023-05-10T13:22:49.200Z,98164.03
2023-05-10T13:25:16.996Z,98160.31
2023-05-10T13:27:43.607Z,98159.78
2023-05-10T13:30:12.151Z,98162.66
2023-05-10T13:32:39.226Z,98153.19
2023-05-10T13:35:06.402Z,98157.31
2023-05-10T13:37:36.280Z,98151.03
2023-05-10T13:40:02.929Z,98155.34
2023-05-10T13:42:29.671Z,98158.97
2023-05-10T13:44:56.298Z,98156.94
2023-05-10T13:47:23.295Z,98162.06
2023-05-10T13:49:49.829Z,98144.50
2023-05-10T13:52:16.378Z,98151.44
2023-05-10T13:54:42.863Z,98141.72
2023-05-10T13:57:09.417Z,98148.28
2023-05-10T13:59:35.944Z,98146.13
2023-05-10T14:02:05.491Z,98146.31
2023-05-10T14:04:32.563Z,98139.31
2023-05-10T14:06:59.084Z,98138.81
2023-05-10T14:09:28.823Z,98143.84
2023-05-10T14:11:55.267Z,98136.38
2023-05-10T14:14:21.707Z,98137.97
2023-05-10T14:16:48.280Z,98131.53
2023-05-10T14:19:14.784Z,98125.59
2023-05-10T14:21:41.245Z,98117.16
2023-05-10T14:24:08.117Z,98111.28
2023-05-10T14:26:35.456Z,98124.50
2023-05-10T14:29:02.309Z,98120.28
2023-05-10T14:31:31.127Z,98120.97
2023-05-10T14:33:58.565Z,98121.63
2023-05-10T14:36:25.191Z,98121.00
2023-05-10T14:38:51.944Z,98109.19
2023-05-10T14:41:18.796Z,98107.44
2023-05-10T14:43:45.331Z,98106.94
2023-05-10T14:46:12.099Z,98109.22
2023-05-10T14:48:38.636Z,98108.81
2023-05-10T14:51:05.096Z,98102.03
2023-05-10T14:53:31.765Z,98099.28
2023-05-10T14:55:58.400Z,98096.59
2023-05-10T14:58:24.942Z,98098.63
2023-05-10T15:00:52.000Z,98091.56
2023-05-10T15:03:18.994Z,98095.97
2023-05-10T15:05:49.017Z,98102.56
2023-05-10T15:08:15.464Z,98103.88
2023-05-10T15:10:41.908Z,98102.38
2023-05-10T15:13:08.394Z,98106.09
2023-05-10T15:24:43.188Z,98094.84
2023-05-10T15:27:12.752Z,98098.66
2023-05-10T15:29:39.305Z,98094.22
2023-05-10T15:32:05.941Z,98098.69
2023-05-10T15:34:34.860Z,98102.03
2023-05-10T15:37:02.211Z,98101.13
2023-05-10T15:39:28.647Z,98102.13
2023-05-10T15:41:55.149Z,98101.97
2023-05-10T15:44:21.820Z,98100.34
2023-05-10T15:46:48.355Z,98108.56
2023-05-10T15:49:14.886Z,98102.88
2023-05-10T15:51:41.526Z,98100.28
2023-05-10T15:54:08.483Z,98103.09
2023-05-10T15:56:35.632Z,98110.69
2023-05-10T15:59:02.498Z,98105.50
2023-05-10T16:01:29.312Z,98094.31
2023-05-10T16:03:56.182Z,98107.28
2023-05-10T16:06:22.667Z,98107.47
2023-05-10T16:08:49.159Z,98105.44
2023-05-10T16:11:15.831Z,98108.50
2023-05-10T16:13:42.275Z,98112.75
2023-05-10T16:16:09.220Z,98107.72
2023-05-10T16:18:36.068Z,98103.25
2023-05-10T16:21:02.799Z,98101.50
2023-05-10T16:23:29.470Z,98104.03
2023-05-10T16:25:56.166Z,98097.88
2023-05-10T16:28:22.691Z,98108.47
2023-05-10T16:30:49.412Z,98106.19
2023-05-10T16:33:16.706Z,98108.72
2023-05-10T16:35:43.847Z,98099.72
2023-05-10T16:38:11.153Z,98101.50
2023-05-10T16:40:37.638Z,98105.53
2023-05-10T16:43:04.124Z,98110.59
2023-05-10T16:45:33.895Z,98106.69
2023-05-10T16:48:00.484Z,98117.34
2023-05-10T16:50:27.182Z,98116.88
2023-05-10T16:52:53.809Z,98117.84
2023-05-10T16:55:20.918Z,98119.72
2023-05-10T16:57:47.445Z,98125.81
2023-05-10T17:00:14.592Z,98128.31
2023-05-10T17:02:41.678Z,98131.41
2023-05-10T17:05:08.646Z,98140.00
2023-05-10T17:07:35.177Z,98154.03
2023-05-10T17:10:02.229Z,98151.97
2023-05-10T17:12:28.854Z,98148.38
2023-05-10T17:14:55.481Z,98161.78
2023-05-10T17:17:23.489Z,98154.06
2023-05-10T17:19:50.106Z,98162.06
2023-05-10T17:22:16.641Z,98157.69
2023-05-10T17:24:43.263Z,98147.84
2023-05-10T17:27:09.752Z,98148.19
2023-05-10T17:29:36.232Z,98147.94
2023-05-10T17:32:02.976Z,98137.66
2023-05-10T17:34:29.582Z,98140.91
2023-05-10T17:36:56.092Z,98147.03
2023-05-10T17:39:22.570Z,98150.41
2023-05-10T17:41:49.064Z,98156.19
2023-05-10T17:44:15.673Z,98157.22
2023-05-10T17:46:42.110Z,98157.69
2023-05-10T17:49:08.550Z,98157.31
2023-05-10T17:51:35.044Z,98167.03
2023-05-10T17:54:01.501Z,98162.88
2023-05-10T17:56:28.751Z,98162.50
2023-05-10T17:58:55.274Z,98164.94
2023-05-10T18:01:21.804Z,98163.06
2023-05-10T18:03:49.407Z,98166.28
2023-05-10T18:06:16.000Z,98177.53
2023-05-10T18:08:42.453Z,98178.59
2023-05-10T18:11:08.887Z,98173.41
2023-05-10T18:13:35.369Z,98183.31
2023-05-10T18:16:01.836Z,98179.94
2023-05-10T18:18:28.348Z,98185.81
2023-05-10T18:20:57.538Z,98186.91
2023-05-10T18:23:24.521Z,98193.72
2023-05-10T18:25:51.783Z,98186.34
2023-05-10T18:28:18.508Z,98186.69
2023-05-10T18:30:45.379Z,98193.03
2023-05-10T18:33:14.762Z,98187.03
2023-05-10T18:35:41.354Z,98184.31
2023-05-10T18:38:09.735Z,98179.72
2023-05-10T18:40:36.688Z,98182.56
2023-05-10T18:43:03.760Z,98189.50
2023-05-10T18:45:30.286Z,98193.47
2023-05-10T18:47:57.134Z,98195.91
2023-05-10T18:50:23.639Z,98196.78
2023-05-10T18:52:50.579Z,98200.31
2023-05-10T18:55:17.201Z,98201.84
2023-05-10T18:57:45.131Z,98201.47
2023-05-10T19:00:12.418Z,98202.75
2023-05-10T19:02:40.200Z,98213.16
2023-05-10T19:05:07.695Z,98217.25
2023-05-10T19:07:34.384Z,98211.09
2023-05-10T19:10:00.870Z,98217.69
2023-05-10T19:12:27.462Z,98214.25
2023-05-10T19:14:54.008Z,98214.44
2023-05-10T19:17:20.490Z,98218.16
2023-05-10T19:19:49.769Z,98216.94
2023-05-10T19:22:16.367Z,98222.81
2023-05-10T19:24:42.911Z,98221.81
2023-05-10T19:27:09.352Z,98235.25
2023-05-10T19:29:35.858Z,98232.00
2023-05-10T19:32:02.479Z,98238.72
2023-05-10T19:34:29.041Z,98225.09
2023-05-10T19:36:56.159Z,98232.44
2023-05-10T19:39:22.657Z,98238.94
2023-05-10T19:41:49.439Z,98247.69
2023-05-10T19:44:16.073Z,98247.44
2023-05-10T19:46:42.637Z,98249.03
2023-05-10T19:49:09.122Z,98241.34
2023-05-10T19:51:35.619Z,98244.38
2023-05-10T19:54:02.077Z,98246.19
2023-05-10T19:56:29.559Z,98248.03
2023-05-10T19:58:56.204Z,98253.13
2023-05-10T20:01:22.772Z,98262.06
2023-05-10T20:03:49.343Z,98261.63
2023-05-10T20:06:15.941Z,98263.06
2023-05-10T20:08:42.543Z,98268.34
2023-05-10T20:11:09.201Z,98262.66
2023-05-10T20:13:35.732Z,98267.13
2023-05-10T20:16:02.545Z,98270.38
2023-05-10T20:18:29.194Z,98270.34
2023-05-10T20:20:58.108Z,98270.09
2023-05-10T20:23:24.952Z,98268.47
2023-05-10T20:25:51.680Z,98267.13
2023-05-10T20:28:23.373Z,98271.38
2023-05-10T20:30:54.786Z,98277.25
2023-05-10T20:33:22.665Z,98279.28
2023-05-10T20:35:50.333Z,98284.63
2023-05-10T20:38:18.099Z,98281.81
2023-05-10T20:40:44.994Z,98281.69
2023-05-10T20:43:11.534Z,98286.66
2023-05-10T20:45:38.112Z,98280.34
2023-05-10T20:48:05.057Z,98287.19
2023-05-10T20:50:31.597Z,98275.66
2023-05-10T20:52:58.183Z,98277.59
2023-05-10T20:55:24.664Z,98277.59
2023-05-10T20:57:51.502Z,98277.13
2023-05-10T21:00:18.404Z,98280.81
2023-05-10T21:02:46.327Z,98273.31
2023-05-10T21:05:12.988Z,98273.19
2023-05-10T21:07:39.746Z,98274.63
2023-05-10T21:10:08.118Z,98274.59
2023-05-10T21:12:34.690Z,98273.81
2023-05-10T21:15:01.325Z,98266.41
2023-05-10T21:17:27.821Z,98276.31
2023-05-10T21:19:54.443Z,98280.22
2023-05-10T21:22:21.467Z,98279.84
2023-05-10T21:24:47.998Z,98273.81
2023-05-10T21:27:14.475Z,98273.25
2023-05-10T21:29:41.073Z,98278.03
2023-05-10T21:32:07.699Z,98281.53
2023-05-10T21:34:34.327Z,98281.25
2023-05-10T21:37:01.182Z,98273.38
2023-05-10T21:39:27.635Z,98277.41
2023-05-10T21:41:56.055Z,98278.72
2023-05-10T21:44:25.410Z,98280.75
2023-05-10T21:46:51.865Z,98286.63
2023-05-10T21:49:18.864Z,98282.38
2023-05-10T21:51:45.653Z,98279.22
2023-05-10T21:54:12.225Z,98283.53
2023-05-10T21:56:38.700Z,98279.97
2023-05-10T21:59:05.918Z,98273.66
2023-05-10T22:01:32.588Z,98270.09
2023-05-10T22:03:59.158Z,98273.84
2023-05-10T22:06:25.663Z,98273.34
2023-05-10T22:08:52.189Z,98277.81
2023-05-10T22:11:18.724Z,98273.78
2023-05-10T22:13:45.222Z,98270.97
2023-05-10T22:16:11.696Z,98268.50
2023-05-10T22:18:38.252Z,98273.22
2023-05-10T22:21:04.819Z,98277.84
2023-05-10T22:23:31.306Z,98279.56
2023-05-10T22:26:04.098Z,98283.84
2023-05-10T22:28:30.691Z,98282.47
2023-05-10T22:30:57.516Z,98272.56
2023-05-10T22:33:24.165Z,98278.03
2023-05-10T22:35:50.811Z,98280.00
2023-05-10T22:38:17.253Z,98280.69
2023-05-10T22:40:43.688Z,98295.22
2023-05-10T22:43:10.153Z,98293.50
2023-05-10T22:45:36.584Z,98289.41
2023-05-10T22:48:05.154Z,98290.75
2023-05-10T22:50:32.044Z,98290.63
2023-05-10T22:52:58.649Z,98282.53
2023-05-10T22:55:25.203Z,98283.63
2023-05-10T22:57:52.197Z,98288.03
2023-05-10T23:00:19.295Z,98286.97
2023-05-10T23:02:46.089Z,98294.31
2023-05-10T23:05:13.158Z,98294.59
2023-05-10T23:07:39.728Z,98295.97
2023-05-10T23:10:06.595Z,98288.78
2023-05-10T23:12:33.897Z,98289.59
2023-05-10T23:15:00.485Z,98285.25
2023-05-10T23:17:26.983Z,98285.81
2023-05-10T23:19:53.498Z,98284.28
2023-05-10T23:22:19.948Z,98282.63
2023-05-10T23:24:46.407Z,98287.41
2023-05-10T23:27:12.850Z,98286.91
2023-05-10T23:29:39.299Z,98282.72
2023-05-10T23:32:05.825Z,98284.84
2023-05-10T23:34:32.325Z,98290.81
2023-05-10T23:36:58.754Z,98294.69
2023-05-10T23:39:25.355Z,98287.34
2023-05-10T23:41:51.921Z,98295.88
2023-05-10T23:44:18.458Z,98297.06
2023-05-10T23:46:44.904Z,98293.88
2023-05-10T23:49:11.429Z,98296.50
2023-05-10T23:51:37.883Z,98286.47
2023-05-10T23:54:04.380Z,98288.81
2023-05-10T23:56:30.817Z,98288.72
2023-05-10T23:58:57.499Z,98290.34
